Time;durP1;ratioP1;P1;durP2;ratioP2;P2;SDS_P1;SDS_P2;PMS_P1;PMS_P2;Temp;Humidity;BMP_temperature;BMP_pressure;BME280_temperature;BME280_humidity;BME280_pressure;Samples;Min_cycle;Max_cycle;Signal;HPM_P1;HPM_P2
2023/03/14 00:02:08;;;;;;;3.90;3.10;;;;;;;10.42;73.30;102006.53;5010513;28;20022;-87
2023/03/14 00:04:34;;;;;;;4.78;3.47;;;;;;;10.44;73.51;102004.06;5023583;28;20124;-88
2023/03/14 00:06:59;;;;;;;5.68;3.40;;;;;;;10.48;73.41;101999.16;5001380;28;20061;-85
2023/03/14 00:09:26;;;;;;;4.88;3.33;;;;;;;10.32;73.24;101976.22;5015401;28;20076;-88
2023/03/14 00:11:53;;;;;;;5.05;2.90;;;;;;;10.21;73.16;101950.09;5019127;28;20032;-88
2023/03/14 00:14:18;;;;;;;4.93;3.25;;;;;;;10.01;73.54;101927.69;5013388;28;20026;-87
2023/03/14 00:16:47;;;;;;;4.95;3.53;;;;;;;10.34;73.24;101961.56;5013415;28;20083;-86
2023/03/14 00:19:13;;;;;;;3.97;3.10;;;;;;;10.46;73.06;101997.25;5013368;28;20033;-87
2023/03/14 00:21:38;;;;;;;4.65;3.15;;;;;;;10.36;73.52;101972.13;5022286;28;20029;-86
2023/03/14 00:24:05;;;;;;;6.15;3.42;;;;;;;10.48;73.47;101986.09;5022804;28;20037;-88
2023/03/14 00:26:31;;;;;;;5.00;3.08;;;;;;;10.37;73.22;101968.72;5013551;28;20044;-87
2023/03/14 00:28:57;;;;;;;5.45;3.30;;;;;;;10.33;73.32;101967.59;5014983;28;20030;-87
2023/03/14 00:31:23;;;;;;;4.53;3.28;;;;;;;10.12;73.35;101919.00;5019581;28;20064;-87
2023/03/14 00:33:48;;;;;;;4.82;3.38;;;;;;;10.32;73.42;101968.38;4996017;28;20396;-88
2023/03/14 00:36:16;;;;;;;4.72;3.47;;;;;;;10.44;73.18;101964.88;5003191;28;20045;-87
2023/03/14 00:38:43;;;;;;;3.42;2.97;;;;;;;10.40;73.44;101963.75;4996412;28;20036;-86
2023/03/14 00:41:11;;;;;;;3.85;2.90;;;;;;;10.34;73.24;101951.13;4999976;28;20025;-87
2023/03/14 00:43:37;;;;;;;5.88;3.53;;;;;;;10.37;73.45;101956.59;5012003;28;20495;-87
2023/03/14 00:46:03;;;;;;;3.38;2.90;;;;;;;10.28;73.03;101934.97;5010949;28;20030;-86
2023/03/14 00:48:29;;;;;;;4.18;3.15;;;;;;;10.21;73.17;101930.09;5023714;28;20058;-87
2023/03/14 00:50:55;;;;;;;4.13;3.05;;;;;;;10.12;73.54;101905.94;5005129;28;20030;-87
2023/03/14 00:53:21;;;;;;;4.88;3.00;;;;;;;10.31;73.43;101939.56;5006101;28;20037;-87
2023/03/14 00:55:47;;;;;;;5.45;3.28;;;;;;;10.16;73.25;101918.44;5001475;28;20048;-87
2023/03/14 00:58:14;;;;;;;4.75;3.00;;;;;;;10.37;73.05;101953.97;5016161;28;20050;-87
2023/03/14 01:00:41;;;;;;;3.42;2.90;;;;;;;10.27;73.16;101927.94;5012377;28;20109;-88
2023/03/14 01:03:08;;;;;;;3.78;2.85;;;;;;;10.39;73.25;101938.41;4996225;28;20060;-88
2023/03/14 01:05:33;;;;;;;4.32;3.22;;;;;;;10.19;73.05;101906.47;5013223;28;20037;-87
2023/03/14 01:07:59;;;;;;;5.30;3.20;;;;;;;10.35;73.32;101923.31;5012538;28;20033;-88
2023/03/14 01:10:25;;;;;;;4.55;3.20;;;;;;;10.23;73.20;101899.78;5012637;28;20044;-89
2023/03/14 01:12:50;;;;;;;3.70;2.90;;;;;;;10.28;73.29;101906.25;5009653;28;20034;-88
2023/03/14 01:15:18;;;;;;;4.13;3.22;;;;;;;9.90;73.09;101844.31;5002819;28;20025;-88
2023/03/14 01:17:44;;;;;;;3.85;3.05;;;;;;;9.87;73.61;101833.66;4992554;28;20118;-88
2023/03/14 01:20:12;;;;;;;4.60;3.40;;;;;;;10.33;72.91;101904.03;5010827;28;20105;-88
2023/03/14 01:22:39;;;;;;;5.07;3.00;;;;;;;10.31;72.72;101892.56;4992804;28;20135;-87
2023/03/14 01:25:10;;;;;;;4.22;3.13;;;;;;;10.29;73.21;101894.13;5009291;28;20030;-87
2023/03/14 01:27:36;;;;;;;3.67;3.10;;;;;;;10.32;72.94;101899.59;5014688;28;20032;-86
2023/03/14 01:30:03;;;;;;;3.85;2.80;;;;;;;10.12;72.83;101862.47;5012931;28;20042;-87
2023/03/14 01:32:30;;;;;;;3.67;2.97;;;;;;;10.12;73.09;101880.75;5012094;28;20095;-87
2023/03/14 01:34:56;;;;;;;3.50;2.80;;;;;;;10.17;73.38;101886.28;5015700;28;20046;-86
2023/03/14 01:37:21;;;;;;;3.25;2.90;;;;;;;10.19;73.41;101880.38;5009198;28;20876;-87
2023/03/14 01:39:48;;;;;;;3.78;2.92;;;;;;;10.08;73.29;101867.34;5001769;28;20033;-86
2023/03/14 01:42:15;;;;;;;4.07;2.90;;;;;;;10.29;73.18;101899.34;5014129;28;20022;-87
2023/03/14 01:45:00;;;;;;;4.43;2.95;;;;;;;10.13;72.98;101884.25;5014949;28;20021;-88
2023/03/14 01:47:26;;;;;;;4.82;3.10;;;;;;;10.18;73.71;101906.38;5013619;28;20419;-87
2023/03/14 01:50:02;;;;;;;3.20;2.70;;;;;;;10.09;73.31;101887.44;4999774;28;20458;-87
2023/03/14 01:52:41;;;;;;;4.27;3.10;;;;;;;10.07;73.28;101870.75;5008846;28;20060;-88
2023/03/14 01:55:13;;;;;;;5.43;3.03;;;;;;;10.17;73.13;101884.59;5013681;28;20335;-88
2023/03/14 01:57:43;;;;;;;3.70;2.90;;;;;;;10.24;73.36;101890.25;4996491;28;20061;-87
2023/03/14 02:00:14;;;;;;;3.47;3.08;;;;;;;10.18;73.09;101889.03;5007506;28;20506;-87
2023/03/14 02:02:43;;;;;;;3.85;3.10;;;;;;;10.19;73.34;101892.53;5015973;28;20037;-88
2023/03/14 02:05:10;;;;;;;3.35;2.78;;;;;;;10.16;73.00;101889.72;5014660;28;20025;-87
2023/03/14 02:07:53;;;;;;;5.07;2.95;;;;;;;10.13;72.91;101894.69;4999654;28;20033;-88
2023/03/14 02:10:21;;;;;;;3.63;2.83;;;;;;;10.17;72.94;101896.72;5009976;28;20053;-87
2023/03/14 02:12:48;;;;;;;3.72;3.00;;;;;;;9.95;72.93;101871.66;4996881;28;20041;-88
2023/03/14 02:15:13;;;;;;;3.72;2.72;;;;;;;10.11;73.32;101905.00;4990057;28;20068;-87
2023/03/14 02:17:42;;;;;;;4.43;3.10;;;;;;;9.99;73.04;101875.41;4999379;28;20079;-87
2023/03/14 02:20:14;;;;;;;3.25;2.60;;;;;;;10.12;73.27;101905.94;5022488;28;20112;-87
2023/03/14 02:22:42;;;;;;;3.80;2.80;;;;;;;9.96;73.04;101896.94;5015569;28;20570;-88
2023/03/14 02:25:30;;;;;;;4.45;3.17;;;;;;;9.99;73.05;101905.03;5012174;28;20546;-87
2023/03/14 02:27:56;;;;;;;4.30;2.95;;;;;;;10.07;72.88;101904.66;5025860;28;20490;-87
2023/03/14 02:30:28;;;;;;;4.20;2.80;;;;;;;10.11;72.97;101927.59;5015399;28;20031;-87
2023/03/14 02:33:18;;;;;;;3.42;2.90;;;;;;;9.99;73.01;101911.94;5015470;28;20030;-88
2023/03/14 02:35:53;;;;;;;3.53;3.00;;;;;;;9.93;73.14;101903.66;4988210;28;20135;-87
2023/03/14 02:38:56;;;;;;;5.32;3.08;;;;;;;9.95;73.22;101899.47;5009498;28;20187;-87
2023/03/14 02:41:22;;;;;;;4.07;3.03;;;;;;;9.93;73.03;101904.56;4979072;28;20106;-88
2023/03/14 02:43:47;;;;;;;3.83;2.78;;;;;;;9.91;73.04;101903.53;4990640;28;20416;-88
2023/03/14 02:46:16;;;;;;;3.40;2.75;;;;;;;9.98;73.22;101905.78;5020865;28;20033;-88
2023/03/14 02:48:48;;;;;;;3.53;2.78;;;;;;;9.66;72.72;101856.44;5011234;28;20699;-89
2023/03/14 02:51:14;;;;;;;3.78;2.60;;;;;;;9.92;72.67;101899.22;5012882;28;20052;-85
2023/03/14 02:53:41;;;;;;;3.83;2.88;;;;;;;9.85;72.60;101892.63;5011291;28;20654;-89
2023/03/14 02:56:08;;;;;;;4.18;2.90;;;;;;;9.82;73.40;101892.44;5004874;28;20091;-89
2023/03/14 02:58:34;;;;;;;3.28;2.88;;;;;;;9.71;72.63;101875.03;5014556;28;20048;-88
2023/03/14 03:00:59;;;;;;;4.55;2.80;;;;;;;10.03;72.62;101920.91;5028001;28;20451;-88
2023/03/14 03:03:25;;;;;;;3.38;2.90;;;;;;;9.83;72.90;101886.41;4996519;28;20038;-88
2023/03/14 03:05:52;;;;;;;4.40;2.90;;;;;;;9.98;73.00;101920.56;5014110;28;20033;-87
2023/03/14 03:08:23;;;;;;;3.95;2.70;;;;;;;9.82;73.06;101907.16;5010992;28;20056;-87
2023/03/14 03:10:49;;;;;;;4.43;3.03;;;;;;;9.94;72.77;101919.41;4998460;28;20413;-87
2023/03/14 03:13:15;;;;;;;3.50;2.63;;;;;;;9.82;72.86;101907.16;5001736;28;20487;-87
2023/03/14 03:15:41;;;;;;;2.70;2.35;;;;;;;9.51;72.95;101857.91;5011243;28;20410;-87
2023/03/14 03:18:07;;;;;;;3.50;2.67;;;;;;;9.41;73.10;101845.84;5011311;28;20262;-88
2023/03/14 03:20:33;;;;;;;5.15;2.78;;;;;;;9.79;72.61;101913.94;5027119;28;20034;-88
2023/03/14 03:22:59;;;;;;;3.33;2.60;;;;;;;9.78;72.98;101906.03;5004033;28;20077;-85
2023/03/14 03:25:25;;;;;;;4.30;3.05;;;;;;;9.84;72.82;101900.34;5017830;28;20124;-85
2023/03/14 03:27:51;;;;;;;3.15;2.55;;;;;;;9.74;72.93;101897.06;5013521;28;20030;-86
2023/03/14 03:30:17;;;;;;;3.10;2.65;;;;;;;9.68;72.72;101878.34;5001590;28;20027;-87
2023/03/14 03:32:42;;;;;;;2.97;2.38;;;;;;;9.74;72.86;101897.06;5013154;28;20037;-88
2023/03/14 03:35:08;;;;;;;4.03;2.70;;;;;;;9.84;72.73;101908.16;4993615;28;20710;-88
2023/03/14 03:37:34;;;;;;;3.95;2.60;;;;;;;9.84;72.91;101914.31;5005054;28;20034;-85
2023/03/14 03:40:04;;;;;;;3.63;2.50;;;;;;;9.82;72.78;101895.03;5011505;28;20030;-87
2023/03/14 03:42:29;;;;;;;3.63;2.90;;;;;;;9.84;72.86;101902.94;5014377;28;20030;-88
2023/03/14 03:44:56;;;;;;;3.15;2.45;;;;;;;9.86;72.58;101917.03;5023483;28;20036;-89
2023/03/14 03:47:21;;;;;;;3.28;2.40;;;;;;;9.86;73.28;101915.31;5030814;28;20034;-89
2023/03/14 03:49:47;;;;;;;2.85;2.30;;;;;;;9.65;73.06;101882.41;5007844;28;20033;-88
2023/03/14 03:52:13;;;;;;;3.85;2.70;;;;;;;9.55;72.69;101868.69;5012028;28;20040;-86
2023/03/14 03:54:39;;;;;;;3.95;2.45;;;;;;;9.55;72.60;101858.25;5011408;28;20033;-85
2023/03/14 03:57:05;;;;;;;3.97;2.78;;;;;;;9.79;72.76;101906.13;5009962;28;20034;-88
2023/03/14 03:59:31;;;;;;;3.72;2.60;;;;;;;9.24;72.50;101800.25;5010610;28;20041;-86
2023/03/14 04:01:56;;;;;;;3.92;2.70;;;;;;;9.26;72.53;101811.72;5001409;28;20141;-86
2023/03/14 04:04:22;;;;;;;2.63;2.25;;;;;;;9.70;72.86;101902.84;5009264;28;20049;-85
2023/03/14 04:06:47;;;;;;;3.40;2.47;;;;;;;9.60;72.69;101870.72;5003970;28;20443;-87
2023/03/14 04:09:13;;;;;;;3.80;2.88;;;;;;;9.51;72.42;101869.22;4993311;28;20057;-86
2023/03/14 04:11:39;;;;;;;3.88;2.50;;;;;;;9.79;72.84;101913.03;4989261;28;20497;-87
2023/03/14 04:14:05;;;;;;;3.40;2.55;;;;;;;9.34;73.00;101833.16;5010769;28;20069;-89
2023/03/14 04:16:33;;;;;;;3.15;2.50;;;;;;;9.66;72.78;101882.53;5018760;28;20033;-87
2023/03/14 04:18:59;;;;;;;3.20;2.30;;;;;;;9.74;73.06;101890.94;4996515;28;20132;-86
2023/03/14 04:21:25;;;;;;;2.78;2.40;;;;;;;9.73;72.81;101890.00;4992056;28;20488;-85
2023/03/14 04:23:50;;;;;;;3.35;2.40;;;;;;;9.63;72.53;101883.97;5000435;28;20036;-85
2023/03/14 04:26:16;;;;;;;3.33;2.47;;;;;;;9.52;72.64;101852.78;4992684;28;20018;-87
2023/03/14 04:28:42;;;;;;;3.30;2.30;;;;;;;9.20;72.85;101815.56;4997164;28;20096;-87
2023/03/14 04:31:09;;;;;;;2.63;2.20;;;;;;;9.26;72.96;101821.25;5008305;28;20048;-88
2023/03/14 04:33:35;;;;;;;3.78;2.53;;;;;;;9.22;72.51;101814.88;5005289;28;20034;-87
2023/03/14 04:36:01;;;;;;;2.78;2.30;;;;;;;9.65;72.73;101887.63;5019156;28;20033;-87
2023/03/14 04:38:27;;;;;;;3.63;2.65;;;;;;;9.51;72.94;101858.81;5015076;28;20029;-87
2023/03/14 04:40:52;;;;;;;3.95;2.67;;;;;;;9.36;73.01;101828.97;4992290;28;20479;-85
2023/03/14 04:43:18;;;;;;;2.80;2.28;;;;;;;9.57;72.52;101866.19;5021184;28;20034;-86
2023/03/14 04:45:43;;;;;;;3.05;2.63;;;;;;;9.68;72.72;101878.34;4994580;28;20029;-84
2023/03/14 04:48:09;;;;;;;3.15;2.60;;;;;;;9.65;73.02;101883.34;4999265;28;20492;-87
2023/03/14 04:50:35;;;;;;;2.88;2.38;;;;;;;9.46;72.68;101851.41;5013224;28;20106;-87
2023/03/14 04:53:01;;;;;;;3.13;2.40;;;;;;;9.50;72.51;101861.28;5012262;28;20502;-87
2023/03/14 04:55:26;;;;;;;3.55;2.33;;;;;;;9.50;72.41;101862.22;5001318;28;20471;-86
2023/03/14 04:57:52;;;;;;;3.25;2.47;;;;;;;9.63;72.72;101890.13;5014024;28;20096;-87
2023/03/14 05:00:18;;;;;;;3.17;2.38;;;;;;;9.38;72.76;101859.56;5022991;28;20125;-86
2023/03/14 05:02:44;;;;;;;3.97;2.67;;;;;;;9.57;72.56;101893.16;5021145;28;21610;-85
2023/03/14 05:05:10;;;;;;;2.55;2.35;;;;;;;9.39;73.07;101852.66;5011730;28;20041;-87
2023/03/14 05:07:35;;;;;;;3.60;2.38;;;;;;;9.41;72.99;101848.47;4985971;28;20392;-87
2023/03/14 05:10:01;;;;;;;2.70;2.22;;;;;;;9.31;72.66;101838.13;4999464;28;20076;-87
2023/03/14 05:12:27;;;;;;;3.22;2.40;;;;;;;9.31;72.74;101827.69;5006755;28;20511;-86
2023/03/14 05:14:52;;;;;;;4.10;2.30;;;;;;;9.30;72.61;101842.44;5024681;28;20039;-86
2023/03/14 05:17:18;;;;;;;4.88;2.53;;;;;;;9.03;72.80;101809.06;5010306;28;20507;-85
2023/03/14 05:19:44;;;;;;;2.60;2.40;;;;;;;9.36;72.71;101853.34;5006191;28;20033;-88
2023/03/14 05:22:10;;;;;;;4.60;2.80;;;;;;;9.28;72.74;101848.34;5013269;28;20033;-87
2023/03/14 05:24:36;;;;;;;;;;;;;;;9.54;72.54;101895.53;5000154;28;20141;-87
2023/03/14 05:27:02;;;;;;;3.10;2.40;;;;;;;9.37;73.05;101867.28;5027679;28;20631;-86
2023/03/14 05:29:27;;;;;;;2.40;2.10;;;;;;;9.30;72.81;101851.97;4991959;28;20025;-87
2023/03/14 05:31:53;;;;;;;3.00;2.15;;;;;;;9.35;72.72;101863.63;5017985;28;20091;-88
2023/03/14 05:34:18;;;;;;;3.35;2.60;;;;;;;9.33;72.81;101866.16;5017748;28;20107;-87
2023/03/14 05:36:44;;;;;;;2.72;2.30;;;;;;;9.43;72.98;101886.00;5005321;28;20030;-86
2023/03/14 05:39:10;;;;;;;2.78;2.33;;;;;;;9.31;72.93;101878.16;5007042;28;20025;-88
2023/03/14 05:41:35;;;;;;;3.97;2.50;;;;;;;9.37;72.82;101878.59;5010797;28;20403;-87
2023/03/14 05:44:01;;;;;;;3.25;2.55;;;;;;;8.92;72.94;101808.22;5002530;28;20029;-87
2023/03/14 05:46:31;;;;;;;2.70;2.20;;;;;;;9.27;72.79;101856.91;5001767;28;20491;-89
2023/03/14 05:48:57;;;;;;;3.83;2.50;;;;;;;9.17;72.53;101844.91;4987946;28;20408;-88
2023/03/14 05:51:23;;;;;;;3.17;2.45;;;;;;;9.48;72.68;101899.38;5007271;28;20635;-89
2023/03/14 05:53:49;;;;;;;3.58;2.55;;;;;;;9.27;72.78;101856.91;5020056;28;20037;-89
2023/03/14 05:56:15;;;;;;;2.63;2.10;;;;;;;9.22;72.73;101850.47;5018818;28;20025;-88
2023/03/14 05:58:44;;;;;;;3.88;2.60;;;;;;;9.31;72.40;101865.13;5006799;28;20492;-89
2023/03/14 06:01:10;;;;;;;3.80;2.55;;;;;;;9.32;72.71;101873.84;4993989;28;20025;-86
2023/03/14 06:03:36;;;;;;;5.13;2.30;;;;;;;9.44;72.72;101895.66;5009404;28;20044;-88
2023/03/14 06:06:05;;;;;;;3.00;2.50;;;;;;;9.23;73.00;101861.00;5003107;28;20073;-90
2023/03/14 06:08:31;;;;;;;2.75;2.40;;;;;;;9.36;72.53;101873.28;5005316;28;20045;-87
2023/03/14 06:10:57;;;;;;;2.67;2.30;;;;;;;8.98;73.06;101818.22;5004399;28;20766;-88
2023/03/14 06:13:22;;;;;;;2.63;2.20;;;;;;;9.28;72.86;101862.25;5005914;28;20045;-88
2023/03/14 06:15:48;;;;;;;3.08;2.50;;;;;;;9.26;72.92;101868.16;5003513;28;20022;-87
2023/03/14 06:18:14;;;;;;;2.95;2.20;;;;;;;9.20;72.98;101858.16;5003546;28;20034;-87
2023/03/14 06:20:39;;;;;;;3.55;2.53;;;;;;;9.41;72.76;101892.78;5008871;28;20573;-87
2023/03/14 06:23:08;;;;;;;3.03;2.67;;;;;;;9.32;72.96;101877.34;5006011;28;20113;-87
2023/03/14 06:25:35;;;;;;;2.67;2.25;;;;;;;9.35;72.62;101882.78;5000952;28;20069;-88
2023/03/14 06:28:19;;;;;;;3.47;2.60;;;;;;;9.41;73.07;101897.09;5004990;28;20104;-87
2023/03/14 06:30:45;;;;;;;3.22;2.40;;;;;;;9.40;73.07;101897.88;4999649;28;20046;-87
2023/03/14 06:33:10;;;;;;;3.55;2.53;;;;;;;9.24;72.92;101868.03;5004593;28;20030;-85
2023/03/14 06:35:37;;;;;;;4.45;2.60;;;;;;;9.00;72.86;101824.47;4981017;28;1298492;-87
2023/03/14 06:38:03;;;;;;;2.70;2.20;;;;;;;8.88;72.64;101794.06;5021394;28;20037;-86
2023/03/14 06:40:28;;;;;;;2.88;2.40;;;;;;;9.29;72.75;101863.16;5010350;28;20021;-88
2023/03/14 06:42:54;;;;;;;2.88;2.45;;;;;;;9.14;73.16;101842.03;5024212;28;20124;-87
2023/03/14 06:45:19;;;;;;;4.85;2.83;;;;;;;9.19;72.86;101874.59;5013661;28;20034;-87
2023/03/14 06:47:45;;;;;;;3.35;2.60;;;;;;;9.18;73.36;101864.94;5013754;28;20452;-86
2023/03/14 06:50:12;;;;;;;3.97;2.40;;;;;;;9.14;73.03;101863.81;5015056;28;20037;-87
2023/03/14 06:52:41;;;;;;;3.45;2.40;;;;;;;9.17;72.91;101847.50;5018298;28;20052;-87
2023/03/14 06:55:08;;;;;;;3.58;2.78;;;;;;;9.38;72.87;101888.25;4996357;28;20026;-88
2023/03/14 06:57:34;;;;;;;3.55;2.38;;;;;;;9.33;73.26;101876.56;5008908;28;20030;-87
2023/03/14 06:59:59;;;;;;;5.47;2.53;;;;;;;9.34;73.13;101882.69;5018638;28;20026;-89
2023/03/14 07:02:25;;;;;;;2.75;2.50;;;;;;;9.20;73.32;101852.94;5012076;28;20018;-89
2023/03/14 07:04:51;;;;;;;4.43;2.40;;;;;;;9.12;73.01;101843.63;5002197;28;20415;-89
2023/03/14 07:07:16;;;;;;;4.20;2.85;;;;;;;9.35;73.17;101880.19;5019964;28;20030;-88
2023/03/14 07:09:42;;;;;;;5.43;2.58;;;;;;;9.00;73.17;101821.84;4995508;28;20487;-91
2023/03/14 07:12:07;;;;;;;4.68;2.80;;;;;;;9.04;73.29;101823.88;5012547;28;20030;-88
2023/03/14 07:14:34;;;;;;;3.70;2.65;;;;;;;9.21;72.71;101843.41;5019155;28;20064;-89
2023/03/14 07:17:01;;;;;;;4.00;2.50;;;;;;;9.32;73.04;101866.03;5002174;28;20500;-89
2023/03/14 07:19:29;;;;;;;5.07;2.65;;;;;;;9.39;73.09;101873.50;5012771;28;20451;-89
2023/03/14 07:21:54;;;;;;;2.90;2.40;;;;;;;9.37;73.01;101868.16;5024557;28;20030;-89
2023/03/14 07:24:20;;;;;;;3.88;2.45;;;;;;;9.16;72.88;101841.41;4995874;28;20030;-89
2023/03/14 07:26:46;;;;;;;4.35;2.58;;;;;;;9.12;73.24;101820.16;5026115;28;20064;-89
2023/03/14 07:29:12;;;;;;;3.20;2.38;;;;;;;9.07;73.19;101814.63;5015302;28;20021;-89
2023/03/14 07:31:43;;;;;;;2.50;2.25;;;;;;;9.24;73.45;101846.28;4998415;28;20029;-90
2023/03/14 07:34:09;;;;;;;4.50;2.42;;;;;;;9.15;73.16;101831.75;5000054;28;20128;-89
2023/03/14 07:36:38;;;;;;;3.67;2.40;;;;;;;9.35;73.31;101859.31;4997435;28;20031;-88
2023/03/14 07:39:04;;;;;;;5.35;2.97;;;;;;;9.38;73.38;101863.88;4993407;28;20039;-88
2023/03/14 07:41:30;;;;;;;3.15;2.17;;;;;;;9.32;73.32;101846.06;5001149;28;20081;-90
2023/03/14 07:43:56;;;;;;;2.50;2.30;;;;;;;9.33;72.89;101854.78;4996836;28;20018;-89
2023/03/14 07:46:23;;;;;;;3.10;2.55;;;;;;;9.25;73.38;101858.50;4998652;28;20069;-90
2023/03/14 07:48:50;;;;;;;2.83;2.33;;;;;;;9.01;73.59;101813.25;4995628;28;20480;-90
2023/03/14 07:51:17;;;;;;;3.95;2.50;;;;;;;9.00;73.64;101811.44;5002377;28;20037;-89
2023/03/14 07:53:43;;;;;;;3.75;2.58;;;;;;;9.03;74.45;101851.66;5005910;28;20057;-88
2023/03/14 07:56:09;;;;;;;3.70;2.40;;;;;;;8.88;74.42;101817.50;5002658;28;20037;-89
2023/03/14 07:58:35;;;;;;;3.25;2.60;;;;;;;8.89;74.61;101836.63;5007376;28;20025;-90
2023/03/14 08:01:03;;;;;;;3.13;2.38;;;;;;;8.85;74.66;101819.88;5019664;28;20116;-87
2023/03/14 08:03:29;;;;;;;4.97;2.97;;;;;;;9.29;73.20;101851.06;4995543;28;20014;-89
2023/03/14 08:05:56;;;;;;;4.65;3.22;;;;;;;9.09;73.32;101820.84;5000743;28;20121;-90
2023/03/14 08:08:23;;;;;;;7.63;2.95;;;;;;;9.12;73.89;101833.19;4998465;28;20025;-89
2023/03/14 08:10:54;;;;;;;6.75;3.05;;;;;;;8.93;74.56;101804.81;4999741;28;20037;-89
2023/03/14 08:13:23;;;;;;;5.28;2.97;;;;;;;8.99;74.69;101826.13;4998258;28;20018;-89
2023/03/14 08:15:50;;;;;;;4.30;2.83;;;;;;;8.67;74.87;101771.56;4993990;28;20033;-89
2023/03/14 08:18:16;;;;;;;4.93;2.88;;;;;;;8.86;74.94;101803.44;4995760;28;20023;-88
2023/03/14 08:20:42;;;;;;;5.15;2.88;;;;;;;8.86;74.92;101795.63;4974323;28;20046;-87
2023/03/14 08:23:07;;;;;;;3.75;2.80;;;;;;;8.85;75.15;101803.34;4991897;28;20042;-88
2023/03/14 08:25:33;;;;;;;4.47;2.90;;;;;;;8.91;74.87;101807.34;5003186;28;20022;-89
2023/03/14 08:27:59;;;;;;;4.78;2.88;;;;;;;8.76;74.94;101788.81;5016630;28;20077;-88
2023/03/14 08:30:26;;;;;;;4.53;2.90;;;;;;;9.03;74.51;101825.59;5010088;28;20046;-89
2023/03/14 08:32:52;;;;;;;5.65;2.90;;;;;;;8.56;75.06;101744.69;5016940;28;20034;-89
2023/03/14 08:35:18;;;;;;;3.58;2.72;;;;;;;8.47;75.01;101717.97;5014038;28;20042;-89
2023/03/14 08:37:44;;;;;;;3.40;2.78;;;;;;;8.64;75.17;101750.50;5001143;28;20026;-88
2023/03/14 08:40:11;;;;;;;4.70;3.00;;;;;;;8.65;75.36;101753.22;4992345;28;20022;-89
2023/03/14 08:42:39;;;;;;;3.85;2.75;;;;;;;8.94;74.94;101799.72;5005101;28;20113;-88
2023/03/14 08:45:06;;;;;;;3.47;2.60;;;;;;;8.87;75.16;101784.44;5019901;28;20030;-87
2023/03/14 08:47:31;;;;;;;3.60;2.50;;;;;;;8.61;75.04;101738.13;5009908;28;20057;-89
2023/03/14 08:49:57;;;;;;;5.60;2.88;;;;;;;8.80;75.07;101776.03;5011829;28;20053;-87
2023/03/14 08:52:24;;;;;;;4.03;2.58;;;;;;;8.67;74.98;101742.91;4993438;28;20065;-88
2023/03/14 08:54:50;;;;;;;3.25;2.53;;;;;;;8.88;75.10;101783.63;5009154;28;20084;-88
2023/03/14 08:57:16;;;;;;;4.07;2.50;;;;;;;8.91;74.84;101783.88;4998147;28;20017;-89
2023/03/14 08:59:45;;;;;;;3.40;2.70;;;;;;;8.77;75.39;101748.94;4997794;28;20038;-88
2023/03/14 09:02:11;;;;;;;3.40;2.60;;;;;;;8.89;75.01;101763.69;4995803;28;20026;-88
2023/03/14 09:04:37;;;;;;;3.53;2.60;;;;;;;8.74;75.19;101746.13;5005033;28;20033;-89
2023/03/14 09:07:03;;;;;;;3.38;2.42;;;;;;;8.93;75.52;101774.50;4999200;28;20423;-88
2023/03/14 09:09:32;;;;;;;3.38;2.88;;;;;;;8.82;74.99;101749.31;5008594;28;20480;-89
2023/03/14 09:11:57;;;;;;;3.63;2.30;;;;;;;8.98;75.28;101774.84;5016011;28;20533;-88
2023/03/14 09:14:24;;;;;;;2.88;2.20;;;;;;;8.87;74.89;101742.75;5008083;28;20121;-89
2023/03/14 09:16:52;;;;;;;3.92;2.85;;;;;;;8.87;75.34;101750.56;4992315;28;20475;-88
2023/03/14 09:19:17;;;;;;;2.95;2.53;;;;;;;8.91;75.53;101754.28;5020188;28;20018;-88
2023/03/14 09:21:44;;;;;;;3.40;2.60;;;;;;;8.72;75.73;101710.31;4991909;28;20027;-89
2023/03/14 09:24:09;;;;;;;3.33;2.40;;;;;;;8.72;75.66;101715.53;5019801;28;20041;-88
2023/03/14 09:26:36;;;;;;;4.60;2.42;;;;;;;8.76;75.66;101728.94;4984107;28;20018;-88
2023/03/14 09:29:02;;;;;;;2.95;2.22;;;;;;;8.82;75.34;101724.97;4993733;28;20030;-88
2023/03/14 09:31:29;;;;;;;3.60;2.58;;;;;;;8.85;75.71;101727.81;5010226;28;20097;-88
2023/03/14 09:33:55;;;;;;;3.55;2.50;;;;;;;8.73;75.63;101705.22;5009747;28;20069;-88
2023/03/14 09:36:25;;;;;;;2.97;2.15;;;;;;;8.90;75.46;101727.34;5015980;28;20101;-90
2023/03/14 09:38:51;;;;;;;3.38;2.38;;;;;;;8.94;74.71;101695.53;5009913;28;20030;-88
2023/03/14 09:41:29;;;;;;;5.82;2.50;;;;;;;9.03;75.28;101747.44;5014570;28;20060;-87
2023/03/14 09:44:29;;;;;;;3.47;2.42;;;;;;;8.99;75.41;101734.97;4992999;28;20042;-87
2023/03/14 09:46:58;;;;;;;2.78;2.20;;;;;;;8.83;75.00;101711.16;4982325;28;20096;-90
2023/03/14 09:49:29;;;;;;;3.40;2.38;;;;;;;8.95;75.27;101736.44;5002298;28;20478;-89
2023/03/14 09:51:57;;;;;;;3.00;2.50;;;;;;;8.98;75.30;101727.94;5012308;28;20418;-88
2023/03/14 09:54:39;;;;;;;3.97;2.33;;;;;;;8.90;75.36;101703.91;4997002;28;20037;-88
2023/03/14 09:57:06;;;;;;;2.53;2.17;;;;;;;8.61;75.26;101659.13;5025305;28;20484;-89
2023/03/14 09:59:34;;;;;;;3.88;2.38;;;;;;;8.91;75.37;101716.16;5009878;28;20108;-88
2023/03/14 10:02:14;;;;;;;3.63;2.30;;;;;;;8.98;74.86;101686.25;5009682;28;20061;-88
2023/03/14 10:04:43;;;;;;;3.28;2.38;;;;;;;8.73;73.86;101621.91;5013051;28;20581;-88
2023/03/14 10:07:25;;;;;;;3.20;2.10;;;;;;;9.12;74.82;101713.34;5008245;28;20029;-89
2023/03/14 10:09:51;;;;;;;3.67;2.58;;;;;;;8.96;75.17;101700.88;5016365;28;20017;-88
2023/03/14 10:12:18;;;;;;;3.53;2.58;;;;;;;8.87;75.12;101687.13;4999264;28;20033;-88
2023/03/14 10:14:50;;;;;;;2.65;2.10;;;;;;;9.04;75.18;101709.25;5003065;28;20036;-89
2023/03/14 10:17:17;;;;;;;3.35;2.40;;;;;;;8.91;75.34;101684.91;5004352;28;20032;-88
2023/03/14 10:19:57;;;;;;;2.53;2.17;;;;;;;8.92;74.98;101667.56;5018656;28;20422;-88
2023/03/14 10:22:26;;;;;;;2.88;2.20;;;;;;;9.11;74.33;101677.66;5001987;28;20562;-88
2023/03/14 10:24:59;;;;;;;2.90;2.13;;;;;;;9.13;74.29;101663.03;5005396;28;20029;-89
2023/03/14 10:27:35;;;;;;;2.85;2.13;;;;;;;9.16;74.37;101653.78;5013730;28;20026;-87
2023/03/14 10:30:12;;;;;;;3.65;2.45;;;;;;;9.41;73.98;101675.50;5007973;28;20087;-88
2023/03/14 10:32:41;;;;;;;3.08;2.13;;;;;;;9.09;74.34;101650.59;5015667;28;20041;-88
2023/03/14 10:35:16;;;;;;;2.20;1.90;;;;;;;9.33;74.03;101660.22;5015862;28;20052;-88
2023/03/14 10:37:56;;;;;;;2.03;1.80;;;;;;;9.28;74.25;101666.78;5026535;28;20041;-88
2023/03/14 10:40:28;;;;;;;2.97;1.90;;;;;;;9.21;74.24;101621.91;5026700;28;20502;-88
2023/03/14 10:42:55;;;;;;;2.72;2.00;;;;;;;9.10;73.74;101600.25;5032601;28;20094;-90
2023/03/14 10:45:38;;;;;;;3.05;2.00;;;;;;;9.16;74.67;101652.84;5002426;28;20028;-89
2023/03/14 10:48:20;;;;;;;2.10;1.85;;;;;;;9.09;73.92;101594.16;5003298;28;20128;-88
2023/03/14 10:50:54;;;;;;;2.47;1.90;;;;;;;9.18;74.16;101599.13;5012618;28;20450;-89
2023/03/14 10:53:23;;;;;;;3.00;2.45;;;;;;;9.14;74.36;101603.25;5012361;28;20041;-89
2023/03/14 10:55:49;;;;;;;2.55;2.08;;;;;;;9.23;73.96;101587.38;5004218;28;20040;-89
2023/03/14 10:58:21;;;;;;;3.40;2.20;;;;;;;9.33;73.84;101613.31;5032440;28;20026;-87
2023/03/14 11:00:52;;;;;;;3.55;2.10;;;;;;;9.19;74.30;101594.84;5008638;28;20498;-89
2023/03/14 11:03:20;;;;;;;2.03;1.83;;;;;;;9.29;73.74;101589.47;5015071;28;20101;-90
2023/03/14 11:05:48;;;;;;;2.20;2.00;;;;;;;9.19;74.87;101610.50;5015817;28;20142;-89
2023/03/14 11:08:42;;;;;;;3.63;2.20;;;;;;;9.24;74.77;101601.28;5015068;28;20092;-89
2023/03/14 11:11:21;;;;;;;2.65;2.00;;;;;;;9.04;74.48;101566.88;5000451;28;20128;-88
2023/03/14 11:14:01;;;;;;;2.53;2.17;;;;;;;9.17;74.08;101563.47;5005464;28;20033;-88
2023/03/14 11:16:26;;;;;;;2.28;1.90;;;;;;;9.23;74.86;101584.75;5013030;28;20021;-88
2023/03/14 11:19:17;;;;;;;3.08;2.15;;;;;;;9.26;74.60;101584.06;5013090;28;20022;-89
2023/03/14 11:21:54;;;;;;;3.00;2.10;;;;;;;9.27;74.53;101568.53;5013134;28;20499;-88
2023/03/14 11:24:37;;;;;;;2.47;1.83;;;;;;;9.18;74.67;101562.66;5011279;28;20040;-88
2023/03/14 11:27:22;;;;;;;3.45;2.00;;;;;;;9.18;74.73;101547.00;5024713;28;20033;-86
2023/03/14 11:29:55;;;;;;;2.35;1.90;;;;;;;9.07;74.55;101524.50;5015314;28;20059;-89
2023/03/14 11:32:25;;;;;;;2.00;1.77;;;;;;;8.90;74.17;101476.41;5001466;28;20483;-88
2023/03/14 11:34:54;;;;;;;2.30;1.92;;;;;;;9.21;74.69;101541.09;5032326;28;20136;-89
2023/03/14 11:37:26;;;;;;;2.47;1.88;;;;;;;9.12;74.56;101511.03;4996367;28;20026;-88